createdAt,value
2022-11-06T00:00:00.329Z,6.11
2022-11-06T00:01:00.311Z,6.09
2022-11-06T00:02:00.436Z,6.09
2022-11-06T00:03:00.368Z,6.08
2022-11-06T00:04:00.295Z,6.08
2022-11-06T00:05:00.269Z,6.09
2022-11-06T00:06:00.266Z,6.06
2022-11-06T00:07:00.247Z,6.08
2022-11-06T00:08:00.242Z,6.08
2022-11-06T00:09:00.227Z,6.06
2022-11-06T00:10:00.228Z,6.04
2022-11-06T00:11:00.205Z,6.04
2022-11-06T00:12:00.202Z,6.03
2022-11-06T00:13:00.180Z,6.01
2022-11-06T00:14:00.170Z,6.01
2022-11-06T00:15:00.160Z,6.01
2022-11-06T00:16:00.157Z,6.00
2022-11-06T00:17:00.169Z,5.96
2022-11-06T00:18:00.176Z,5.96
2022-11-06T00:19:00.140Z,5.96
2022-11-06T00:20:00.119Z,5.93
2022-11-06T00:21:00.089Z,5.91
2022-11-06T00:22:00.095Z,5.91
2022-11-06T00:23:00.088Z,5.91
2022-11-06T00:24:00.172Z,5.91
2022-11-06T00:25:00.053Z,5.89
2022-11-06T00:26:00.072Z,5.89
2022-11-06T00:27:00.030Z,5.86
2022-11-06T00:28:00.029Z,5.89
2022-11-06T00:29:00.033Z,5.89
2022-11-06T00:30:00.034Z,5.86
2022-11-06T00:30:59.986Z,5.85
2022-11-06T00:31:59.992Z,5.83
2022-11-06T00:32:59.960Z,5.83
2022-11-06T00:33:59.971Z,5.82
2022-11-06T00:34:59.949Z,5.82
2022-11-06T00:35:59.935Z,5.81
2022-11-06T00:36:59.912Z,5.81
2022-11-06T00:37:59.907Z,5.79
2022-11-06T00:38:59.903Z,5.81
2022-11-06T00:39:59.909Z,5.79
2022-11-06T00:40:59.875Z,5.79
2022-11-06T00:41:59.864Z,5.78
2022-11-06T00:42:59.858Z,5.78
2022-11-06T00:43:59.869Z,5.75
2022-11-06T00:44:59.850Z,5.76
2022-11-06T00:45:59.830Z,5.76
2022-11-06T00:46:59.803Z,5.75
2022-11-06T00:47:59.801Z,5.75
2022-11-06T00:48:59.794Z,5.75
2022-11-06T00:49:59.788Z,5.74
2022-11-06T00:50:59.778Z,5.76
2022-11-06T00:51:59.765Z,5.75
2022-11-06T00:52:59.743Z,5.75
2022-11-06T00:53:59.733Z,5.74
2022-11-06T00:54:59.717Z,5.75
2022-11-06T00:55:59.753Z,5.75
2022-11-06T00:56:59.734Z,5.75
2022-11-06T00:57:59.688Z,5.75
2022-11-06T00:58:59.718Z,5.74
2022-11-06T00:59:59.669Z,5.75
2022-11-06T01:00:59.687Z,5.75
2022-11-06T01:01:59.827Z,5.75
2022-11-06T01:02:59.828Z,5.74
2022-11-06T01:03:59.623Z,5.74
2022-11-06T01:04:59.623Z,5.72
2022-11-06T01:05:59.678Z,5.71
2022-11-06T01:06:59.593Z,5.74
2022-11-06T01:07:59.602Z,5.74
2022-11-06T01:08:59.594Z,5.74
2022-11-06T01:09:59.565Z,5.72
2022-11-06T01:10:59.556Z,5.72
2022-11-06T01:12:15.061Z,5.72
2022-11-06T01:12:59.526Z,5.71
2022-11-06T01:13:59.506Z,5.68
2022-11-06T01:14:59.494Z,5.67
2022-11-06T01:15:59.488Z,5.68
2022-11-06T01:16:59.481Z,5.68
2022-11-06T01:17:59.469Z,5.68
2022-11-06T01:18:59.473Z,5.67
2022-11-06T01:19:59.450Z,5.67
2022-11-06T01:20:59.448Z,5.68
2022-11-06T01:21:59.436Z,5.65
2022-11-06T01:22:59.406Z,5.65
2022-11-06T01:23:59.403Z,5.65
2022-11-06T01:24:59.453Z,5.64
2022-11-06T01:25:59.391Z,5.67
2022-11-06T01:27:59.371Z,5.67
2022-11-06T01:28:59.347Z,5.65
2022-11-06T01:29:59.338Z,5.64
2022-11-06T01:30:59.360Z,5.64
2022-11-06T01:31:59.329Z,5.64
2022-11-06T01:32:59.307Z,5.63
2022-11-06T01:33:59.316Z,5.64
2022-11-06T01:34:59.283Z,5.64
2022-11-06T01:35:59.279Z,5.64
2022-11-06T01:36:59.259Z,5.63
2022-11-06T01:37:59.258Z,5.61
2022-11-06T01:38:59.242Z,5.61
2022-11-06T01:39:59.222Z,5.63
2022-11-06T01:40:59.209Z,5.61
2022-11-06T01:41:59.199Z,5.61
2022-11-06T01:42:59.198Z,5.61
2022-11-06T01:43:59.195Z,5.63
2022-11-06T01:44:59.182Z,5.61
2022-11-06T01:45:59.161Z,5.60
2022-11-06T01:46:59.151Z,5.60
2022-11-06T01:47:59.156Z,5.60
2022-11-06T01:48:59.121Z,5.60
2022-11-06T01:49:59.125Z,5.60
2022-11-06T01:50:59.093Z,5.58
2022-11-06T01:51:59.091Z,5.60
2022-11-06T01:52:59.082Z,5.60
2022-11-06T01:53:59.111Z,5.61
2022-11-06T01:54:59.074Z,5.61
2022-11-06T01:55:59.051Z,5.63
2022-11-06T01:56:59.032Z,5.63
2022-11-06T01:57:59.017Z,5.65
2022-11-06T01:58:59.022Z,5.65
2022-11-06T01:59:59.011Z,5.65
2022-11-06T02:00:58.989Z,5.65
2022-11-06T02:01:59.141Z,5.65
2022-11-06T02:02:59.234Z,5.65
2022-11-06T02:03:58.989Z,5.65
2022-11-06T02:04:58.954Z,5.65
2022-11-06T02:05:58.965Z,5.67
2022-11-06T02:06:58.924Z,5.68
2022-11-06T02:07:58.907Z,5.67
2022-11-06T02:08:58.909Z,5.68
2022-11-06T02:09:58.894Z,5.67
2022-11-06T02:10:58.884Z,5.68
2022-11-06T02:11:58.889Z,5.68
2022-11-06T02:12:58.846Z,5.68
2022-11-06T02:13:58.840Z,5.67
2022-11-06T02:14:58.825Z,5.67
2022-11-06T02:15:58.832Z,5.68
2022-11-06T02:16:58.814Z,5.67
2022-11-06T02:17:58.794Z,5.67
2022-11-06T02:18:58.786Z,5.71
2022-11-06T02:19:58.780Z,5.67
2022-11-06T02:20:58.769Z,5.67
2022-11-06T02:21:58.793Z,5.67
2022-11-06T02:22:58.759Z,5.67
2022-11-06T02:23:58.729Z,5.65
2022-11-06T02:24:58.716Z,5.67
2022-11-06T02:25:58.724Z,5.65
2022-11-06T02:26:58.701Z,5.67
2022-11-06T02:27:58.705Z,5.65
2022-11-06T02:28:58.693Z,5.67
2022-11-06T02:29:58.665Z,5.67
2022-11-06T02:30:58.654Z,5.65
2022-11-06T02:31:58.639Z,5.67
2022-11-06T02:32:58.634Z,5.67
2022-11-06T02:33:58.633Z,5.68
2022-11-06T02:34:58.605Z,5.68
2022-11-06T02:35:58.593Z,5.71
2022-11-06T02:36:58.577Z,5.72
2022-11-06T02:37:58.584Z,5.72
2022-11-06T02:38:58.576Z,5.71
2022-11-06T02:39:58.560Z,5.74
2022-11-06T02:40:58.541Z,5.74
2022-11-06T02:41:58.545Z,5.75
2022-11-06T02:42:58.516Z,5.72
2022-11-06T02:43:58.516Z,5.72
2022-11-06T02:44:58.515Z,5.72
2022-11-06T02:45:58.516Z,5.71
2022-11-06T02:46:58.480Z,5.72
2022-11-06T02:47:58.489Z,5.72
2022-11-06T02:48:58.446Z,5.72
2022-11-06T02:49:58.452Z,5.72
2022-11-06T02:50:58.437Z,5.72
2022-11-06T02:51:58.421Z,5.72
2022-11-06T02:52:58.407Z,5.74
2022-11-06T02:53:58.398Z,5.75
2022-11-06T02:54:58.392Z,5.74
2022-11-06T02:55:58.380Z,5.75
2022-11-06T02:56:58.355Z,5.74
2022-11-06T02:57:58.346Z,5.74
2022-11-06T02:58:58.332Z,5.74
2022-11-06T02:59:58.343Z,5.74
2022-11-06T03:00:58.318Z,5.74
2022-11-06T03:01:58.514Z,5.72
2022-11-06T03:02:58.480Z,5.74
2022-11-06T03:03:58.289Z,5.74
2022-11-06T03:04:58.276Z,5.74
2022-11-06T03:05:58.266Z,5.74
2022-11-06T03:06:58.261Z,5.75
2022-11-06T03:07:58.246Z,5.72
2022-11-06T03:08:58.222Z,5.72
2022-11-06T03:09:58.230Z,5.71
2022-11-06T03:10:58.205Z,5.71
2022-11-06T03:11:58.199Z,5.68
2022-11-06T03:12:58.194Z,5.71
2022-11-06T03:13:58.182Z,5.68
2022-11-06T03:14:58.165Z,5.68
2022-11-06T03:15:58.152Z,5.71
2022-11-06T03:16:58.142Z,5.71
2022-11-06T03:17:58.135Z,5.71
2022-11-06T03:18:58.114Z,5.72
2022-11-06T03:19:58.134Z,5.71
2022-11-06T03:20:58.093Z,5.71
2022-11-06T03:21:58.087Z,5.68
2022-11-06T03:22:58.067Z,5.67
2022-11-06T03:23:58.068Z,5.67
2022-11-06T03:24:58.058Z,5.67
2022-11-06T03:25:58.047Z,5.67
2022-11-06T03:26:58.028Z,5.67
2022-11-06T03:27:58.031Z,5.64
2022-11-06T03:28:57.999Z,5.67
2022-11-06T03:29:58.005Z,5.64
2022-11-06T03:30:57.996Z,5.65
2022-11-06T03:31:57.974Z,5.65
2022-11-06T03:32:57.961Z,5.64
2022-11-06T03:33:57.973Z,5.64
2022-11-06T03:34:57.937Z,5.63
2022-11-06T03:35:57.943Z,5.61
2022-11-06T03:36:57.909Z,5.61
2022-11-06T03:37:57.911Z,5.60
2022-11-06T03:38:57.900Z,5.58
2022-11-06T03:39:57.906Z,5.60
2022-11-06T03:40:57.879Z,5.60
2022-11-06T03:41:57.884Z,5.58
2022-11-06T03:42:57.847Z,5.58
2022-11-06T03:43:57.832Z,5.57
2022-11-06T03:44:57.848Z,5.57
2022-11-06T03:45:57.836Z,5.56
2022-11-06T03:46:57.805Z,5.56
2022-11-06T03:47:57.824Z,5.56
2022-11-06T03:48:57.775Z,5.54
2022-11-06T03:49:57.775Z,5.54
2022-11-06T03:50:57.772Z,5.53
2022-11-06T03:51:57.751Z,5.53
2022-11-06T03:52:57.749Z,5.53
2022-11-06T03:53:57.735Z,5.54
2022-11-06T03:54:57.715Z,5.53
2022-11-06T03:55:57.712Z,5.51
2022-11-06T03:56:57.695Z,5.51
2022-11-06T03:57:57.690Z,5.49
2022-11-06T03:58:57.820Z,5.48
2022-11-06T03:59:57.656Z,5.48
2022-11-06T04:00:57.656Z,5.46
2022-11-06T04:01:57.775Z,5.45
2022-11-06T04:02:57.771Z,5.46
2022-11-06T04:03:57.615Z,5.45
2022-11-06T04:04:57.605Z,5.45
2022-11-06T04:05:57.606Z,5.45
2022-11-06T04:06:57.587Z,5.45
2022-11-06T04:07:57.584Z,5.45
2022-11-06T04:08:57.559Z,5.43
2022-11-06T04:09:57.558Z,5.43
2022-11-06T04:10:57.565Z,5.43
2022-11-06T04:11:57.528Z,5.42
2022-11-06T04:12:57.522Z,5.42
2022-11-06T04:13:57.501Z,5.42
2022-11-06T04:14:57.508Z,5.40
2022-11-06T04:15:57.497Z,5.40
2022-11-06T04:16:57.489Z,5.40
2022-11-06T04:17:57.464Z,5.40
2022-11-06T04:18:57.449Z,5.38
2022-11-06T04:19:57.435Z,5.38
2022-11-06T04:20:57.427Z,5.38
2022-11-06T04:21:57.433Z,5.35
2022-11-06T04:22:57.401Z,5.36
2022-11-06T04:23:57.393Z,5.36
2022-11-06T04:24:57.380Z,5.36
2022-11-06T04:25:57.374Z,5.36
2022-11-06T04:26:57.379Z,5.38
2022-11-06T04:27:57.348Z,5.35
2022-11-06T04:28:57.342Z,5.36
2022-11-06T04:29:57.329Z,5.36
2022-11-06T04:30:57.314Z,5.35
2022-11-06T04:31:57.301Z,5.33
2022-11-06T04:33:00.393Z,5.35
2022-11-06T04:33:57.285Z,5.31
2022-11-06T04:34:57.265Z,5.30
2022-11-06T04:35:57.260Z,5.30
2022-11-06T04:36:57.246Z,5.31
2022-11-06T04:37:57.258Z,5.30
2022-11-06T04:38:57.233Z,5.30
2022-11-06T04:39:57.217Z,5.30
2022-11-06T04:40:57.213Z,5.28
2022-11-06T04:41:57.195Z,5.28
2022-11-06T04:42:57.180Z,5.30
2022-11-06T04:43:57.185Z,5.28
2022-11-06T04:44:57.173Z,5.28
2022-11-06T04:45:57.151Z,5.28
2022-11-06T04:46:57.156Z,5.28
2022-11-06T04:47:57.128Z,5.28
2022-11-06T04:48:57.111Z,5.27
2022-11-06T04:49:57.120Z,5.28
2022-11-06T04:50:57.093Z,5.27
2022-11-06T04:51:57.081Z,5.27
2022-11-06T04:52:57.071Z,5.27
2022-11-06T04:53:57.063Z,5.27
2022-11-06T04:54:57.056Z,5.25
2022-11-06T04:55:57.042Z,5.22
2022-11-06T04:56:57.025Z,5.22
2022-11-06T04:57:57.020Z,5.22
2022-11-06T04:58:57.006Z,5.21
2022-11-06T04:59:57.029Z,5.20
2022-11-06T05:00:57.058Z,5.21
2022-11-06T05:01:56.998Z,5.21
2022-11-06T05:02:56.959Z,5.21
2022-11-06T05:03:56.953Z,5.20
2022-11-06T05:04:56.930Z,5.21
2022-11-06T05:05:56.951Z,5.21
2022-11-06T05:06:56.914Z,5.20
2022-11-06T05:07:56.917Z,5.18
2022-11-06T05:08:56.897Z,5.17
2022-11-06T05:09:56.889Z,5.18
2022-11-06T05:10:56.872Z,5.18
2022-11-06T05:11:56.883Z,5.18
2022-11-06T05:12:56.851Z,5.18
2022-11-06T05:13:56.835Z,5.18
2022-11-06T05:14:56.824Z,5.17
2022-11-06T05:15:56.816Z,5.18
2022-11-06T05:16:56.836Z,5.17
2022-11-06T05:17:56.800Z,5.17
2022-11-06T05:18:56.779Z,5.15
2022-11-06T05:19:56.770Z,5.15
2022-11-06T05:20:56.755Z,5.15
2022-11-06T05:21:56.751Z,5.13
2022-11-06T05:22:56.746Z,5.13
2022-11-06T05:23:56.741Z,5.13
2022-11-06T05:24:56.713Z,5.15
2022-11-06T05:25:56.704Z,5.15
2022-11-06T05:26:59.668Z,5.13
2022-11-06T05:27:56.683Z,5.13
2022-11-06T05:28:56.675Z,5.13
2022-11-06T05:29:56.676Z,5.13
2022-11-06T05:30:56.644Z,5.10
2022-11-06T05:31:56.642Z,5.12
2022-11-06T05:32:56.628Z,5.10
2022-11-06T05:33:56.635Z,5.12
2022-11-06T05:34:56.603Z,5.12
2022-11-06T05:35:56.599Z,5.10
2022-11-06T05:36:56.584Z,5.12
2022-11-06T05:37:56.586Z,5.10
2022-11-06T05:38:56.568Z,5.12
2022-11-06T05:39:56.570Z,5.12
2022-11-06T05:40:56.532Z,5.12
2022-11-06T05:41:56.532Z,5.10
2022-11-06T05:42:56.521Z,5.12
2022-11-06T05:43:56.511Z,5.09
2022-11-06T05:44:56.505Z,5.09
2022-11-06T05:45:56.494Z,5.10
2022-11-06T05:46:56.472Z,5.09
2022-11-06T05:47:56.475Z,5.07
2022-11-06T05:48:56.453Z,5.07
2022-11-06T05:49:56.442Z,5.07
2022-11-06T05:50:56.440Z,5.06
2022-11-06T05:51:56.422Z,5.06
2022-11-06T05:52:56.402Z,5.07
2022-11-06T05:53:56.402Z,5.06
2022-11-06T05:54:56.382Z,5.06
2022-11-06T05:55:56.384Z,5.06
2022-11-06T05:56:56.368Z,5.06
2022-11-06T05:57:56.356Z,5.06
2022-11-06T05:58:56.339Z,5.04
2022-11-06T05:59:56.326Z,5.04
2022-11-06T06:00:56.333Z,5.04
2022-11-06T06:01:56.455Z,5.02
2022-11-06T06:02:56.357Z,5.02
2022-11-06T06:03:56.283Z,5.00
2022-11-06T06:04:56.275Z,4.99
2022-11-06T06:05:56.274Z,4.97
2022-11-06T06:06:56.270Z,4.97
2022-11-06T06:07:56.272Z,4.97
2022-11-06T06:08:56.252Z,4.97
2022-11-06T06:09:56.238Z,4.96
2022-11-06T06:10:56.204Z,4.97
2022-11-06T06:11:56.237Z,4.97
2022-11-06T06:12:56.196Z,4.96
2022-11-06T06:13:56.175Z,4.96
2022-11-06T06:14:56.176Z,4.94
2022-11-06T06:15:56.162Z,4.92
2022-11-06T06:16:56.136Z,4.91
2022-11-06T06:17:56.148Z,4.89
2022-11-06T06:18:56.113Z,4.89
2022-11-06T06:19:56.114Z,4.89
2022-11-06T06:20:56.106Z,4.91
2022-11-06T06:21:56.079Z,4.89
2022-11-06T06:22:56.103Z,4.88
2022-11-06T06:23:56.053Z,4.89
2022-11-06T06:24:56.112Z,4.91
2022-11-06T06:25:56.037Z,4.91
2022-11-06T06:26:56.055Z,4.91
2022-11-06T06:27:56.011Z,4.92
2022-11-06T06:28:56.016Z,4.92
2022-11-06T06:29:55.990Z,4.94
2022-11-06T06:31:01.273Z,4.92
2022-11-06T06:31:55.976Z,4.92
2022-11-06T06:32:55.973Z,4.91
2022-11-06T06:33:55.960Z,4.92
2022-11-06T06:34:55.939Z,4.94
2022-11-06T06:35:55.920Z,4.96
2022-11-06T06:36:55.919Z,4.96
2022-11-06T06:37:55.910Z,4.96
2022-11-06T06:38:55.912Z,4.96
2022-11-06T06:39:55.893Z,4.96
2022-11-06T06:40:55.887Z,4.96
2022-11-06T06:41:55.862Z,4.97
2022-11-06T06:42:55.859Z,4.99
2022-11-06T06:43:55.839Z,4.99
2022-11-06T06:44:55.849Z,5.02
2022-11-06T06:45:55.849Z,5.00
2022-11-06T06:46:55.811Z,5.02
2022-11-06T06:47:55.798Z,5.02
2022-11-06T06:48:55.789Z,5.03
2022-11-06T06:49:55.780Z,5.04
2022-11-06T06:50:55.787Z,5.06
2022-11-06T06:51:55.759Z,5.04
2022-11-06T06:52:55.745Z,5.07
2022-11-06T06:53:55.725Z,5.07
2022-11-06T06:54:55.730Z,5.09
2022-11-06T06:55:55.715Z,5.09
2022-11-06T06:56:55.707Z,5.10
2022-11-06T06:57:55.682Z,5.12
2022-11-06T06:58:55.673Z,5.15
2022-11-06T06:59:55.668Z,5.15
2022-11-06T07:00:55.762Z,5.17
2022-11-06T07:01:55.800Z,5.20
2022-11-06T07:02:55.630Z,5.21
2022-11-06T07:03:59.894Z,5.22
2022-11-06T07:04:55.614Z,5.24
2022-11-06T07:05:55.603Z,5.25
2022-11-06T07:06:55.595Z,5.28
2022-11-06T07:07:55.572Z,5.31
2022-11-06T07:08:55.560Z,5.33
2022-11-06T07:09:55.550Z,5.35
2022-11-06T07:10:55.547Z,5.38
2022-11-06T07:11:55.541Z,5.39
2022-11-06T07:12:55.530Z,5.40
2022-11-06T07:13:55.507Z,5.43
2022-11-06T07:14:55.496Z,5.45
2022-11-06T07:15:55.480Z,5.48
2022-11-06T07:16:55.473Z,5.51
2022-11-06T07:17:55.524Z,5.54
2022-11-06T07:18:55.459Z,5.57
2022-11-06T07:19:55.440Z,5.56
2022-11-06T07:20:55.441Z,5.60
2022-11-06T07:21:55.448Z,5.61
2022-11-06T07:22:55.411Z,5.61
2022-11-06T07:23:55.419Z,5.64
2022-11-06T07:24:55.392Z,5.67
2022-11-06T07:25:55.371Z,5.67
2022-11-06T07:26:55.357Z,5.68
2022-11-06T07:28:00.338Z,5.71
2022-11-06T07:28:55.370Z,5.74
2022-11-06T07:29:55.338Z,5.75
2022-11-06T07:30:55.339Z,5.76
2022-11-06T07:31:55.327Z,5.78
2022-11-06T07:32:55.292Z,5.81
2022-11-06T07:33:55.285Z,5.83
2022-11-06T07:34:55.341Z,5.85
2022-11-06T07:35:55.265Z,5.86
2022-11-06T07:36:55.260Z,5.90
2022-11-06T07:37:55.259Z,5.91
2022-11-06T07:38:55.224Z,5.91
2022-11-06T07:39:55.222Z,5.94
2022-11-06T07:40:55.230Z,5.96
2022-11-06T07:41:55.195Z,6.00
2022-11-06T07:42:55.189Z,6.01
2022-11-06T07:43:55.174Z,6.06
2022-11-06T07:44:55.188Z,6.06
2022-11-06T07:45:55.148Z,6.09
2022-11-06T07:46:55.142Z,6.12
2022-11-06T07:47:58.967Z,6.14
2022-11-06T07:48:55.130Z,6.18
2022-11-06T07:49:55.117Z,6.17
2022-11-06T07:50:55.120Z,6.21
2022-11-06T07:51:55.081Z,6.21
2022-11-06T07:52:55.077Z,6.25
2022-11-06T07:53:55.066Z,6.27
2022-11-06T07:54:55.062Z,6.30
2022-11-06T07:55:55.049Z,6.31
2022-11-06T07:56:55.038Z,6.34
2022-11-06T07:57:55.015Z,6.37
2022-11-06T07:58:55.007Z,6.40
2022-11-06T07:59:55.105Z,6.41
2022-11-06T08:00:55.050Z,6.46
2022-11-06T08:01:55.192Z,6.48
2022-11-06T08:02:54.970Z,6.51
2022-11-06T08:03:54.954Z,6.54
2022-11-06T08:04:54.946Z,6.55
2022-11-06T08:05:54.945Z,6.58
2022-11-06T08:06:54.938Z,6.62
2022-11-06T08:07:54.948Z,6.66
2022-11-06T08:08:58.730Z,6.69
2022-11-06T08:09:54.886Z,6.71
2022-11-06T08:10:54.895Z,6.74
2022-11-06T08:11:54.897Z,6.81
2022-11-06T08:12:54.874Z,6.85
2022-11-06T08:13:54.846Z,6.87
2022-11-06T08:14:54.836Z,6.89
2022-11-06T08:15:54.826Z,6.92
2022-11-06T08:16:54.823Z,6.97
2022-11-06T08:17:54.812Z,6.98
2022-11-06T08:18:54.799Z,7.05
2022-11-06T08:19:54.785Z,7.07
2022-11-06T08:20:54.773Z,7.12
2022-11-06T08:21:54.750Z,7.13
2022-11-06T08:22:54.753Z,7.16
2022-11-06T08:23:54.731Z,7.20
2022-11-06T08:24:54.729Z,7.23
2022-11-06T08:25:54.722Z,7.27
2022-11-06T08:26:54.712Z,7.31
2022-11-06T08:27:54.697Z,7.32
2022-11-06T08:28:54.698Z,7.35
2022-11-06T08:29:54.670Z,7.39
2022-11-06T08:30:54.660Z,7.42
2022-11-06T08:31:54.645Z,7.46
2022-11-06T08:32:54.646Z,7.49
2022-11-06T08:33:54.649Z,7.52
2022-11-06T08:34:54.617Z,7.57
2022-11-06T08:35:54.606Z,7.60
2022-11-06T08:36:54.598Z,7.64
2022-11-06T08:37:54.603Z,7.67
2022-11-06T08:38:54.584Z,7.68
2022-11-06T08:39:54.565Z,7.72
2022-11-06T08:40:54.549Z,7.74
2022-11-06T08:41:54.532Z,7.79
2022-11-06T08:42:54.534Z,7.80
2022-11-06T08:43:54.517Z,7.82
2022-11-06T08:44:54.518Z,7.83
2022-11-06T08:45:54.492Z,7.87
2022-11-06T08:46:54.477Z,7.90
2022-11-06T08:47:54.468Z,7.93
2022-11-06T08:48:54.462Z,7.97
2022-11-06T08:49:54.473Z,7.98
2022-11-06T08:50:54.432Z,8.00
2022-11-06T08:51:54.419Z,8.02
2022-11-06T08:52:54.414Z,8.05
2022-11-06T08:53:54.450Z,8.07
2022-11-06T08:54:54.412Z,8.11
2022-11-06T08:55:54.389Z,8.15
2022-11-06T08:56:54.405Z,8.18
2022-11-06T08:57:54.361Z,8.20
2022-11-06T08:58:55.766Z,8.23
2022-11-06T08:59:54.331Z,8.25
2022-11-06T09:00:54.381Z,8.28
2022-11-06T09:01:54.509Z,8.30
2022-11-06T09:02:54.311Z,8.34
2022-11-06T09:03:54.289Z,8.34
2022-11-06T09:04:54.285Z,8.38
2022-11-06T09:05:54.381Z,8.41
2022-11-06T09:06:54.267Z,8.44
2022-11-06T09:07:54.247Z,8.45
2022-11-06T09:08:54.242Z,8.50
2022-11-06T09:09:54.238Z,8.53
2022-11-06T09:10:58.468Z,8.55
2022-11-06T09:11:54.230Z,8.56
2022-11-06T09:12:54.205Z,8.59
2022-11-06T09:13:54.183Z,8.63
2022-11-06T09:14:54.174Z,8.65
2022-11-06T09:15:54.169Z,8.70
2022-11-06T09:16:54.162Z,8.71
2022-11-06T09:17:54.175Z,8.73
2022-11-06T09:18:54.135Z,8.73
2022-11-06T09:19:54.121Z,8.74
2022-11-06T09:20:54.113Z,8.77
2022-11-06T09:21:54.997Z,8.77
2022-11-06T09:22:54.084Z,8.79
2022-11-06T09:23:54.075Z,8.81
2022-11-06T09:25:09.246Z,8.83
2022-11-06T09:25:54.142Z,8.86
2022-11-06T09:26:54.065Z,8.87
2022-11-06T09:27:58.937Z,8.91
2022-11-06T09:28:54.031Z,8.92
2022-11-06T09:29:54.009Z,8.96
2022-11-06T09:30:54.034Z,8.99
2022-11-06T09:31:53.984Z,9.01
2022-11-06T09:32:54.006Z,9.01
2022-11-06T09:33:53.966Z,9.04
2022-11-06T09:34:53.956Z,9.08
2022-11-06T09:35:53.959Z,9.08
2022-11-06T09:36:53.930Z,9.10
2022-11-06T09:37:53.935Z,9.11
2022-11-06T09:38:53.922Z,9.14
2022-11-06T09:39:53.903Z,9.15
2022-11-06T09:40:53.896Z,9.20
2022-11-06T09:41:53.874Z,9.21
2022-11-06T09:42:53.873Z,9.20
2022-11-06T09:44:09.227Z,9.23
2022-11-06T09:44:53.853Z,9.28
2022-11-06T09:45:55.077Z,9.28
2022-11-06T09:46:53.821Z,9.32
2022-11-06T09:47:53.806Z,9.36
2022-11-06T09:48:53.810Z,9.39
2022-11-06T09:49:53.798Z,9.40
2022-11-06T09:50:53.774Z,9.42
2022-11-06T09:51:53.769Z,9.47
2022-11-06T09:52:53.761Z,9.50
2022-11-06T09:53:53.745Z,9.50
2022-11-06T09:54:58.080Z,9.51
2022-11-06T09:55:53.730Z,9.53
2022-11-06T09:56:53.721Z,9.56
2022-11-06T09:57:53.701Z,9.57
2022-11-06T09:58:53.692Z,9.60
2022-11-06T09:59:53.685Z,9.61
2022-11-06T10:00:53.747Z,9.66
2022-11-06T10:01:53.785Z,9.68
2022-11-06T10:02:53.757Z,9.74
2022-11-06T10:03:53.637Z,9.76
2022-11-06T10:04:53.685Z,9.81
2022-11-06T10:05:53.612Z,9.84
2022-11-06T10:06:53.601Z,9.87
2022-11-06T10:07:53.592Z,9.93
2022-11-06T10:08:53.599Z,9.93
2022-11-06T10:09:53.604Z,9.96
2022-11-06T10:10:53.554Z,9.99
2022-11-06T10:11:53.544Z,10.02
2022-11-06T10:12:53.549Z,10.02
2022-11-06T10:13:53.523Z,10.05
2022-11-06T10:14:53.521Z,10.09
2022-11-06T10:15:53.517Z,10.11
2022-11-06T10:16:53.508Z,10.15
2022-11-06T10:17:53.486Z,10.23
2022-11-06T10:18:53.472Z,10.29
2022-11-06T10:19:53.464Z,10.33
2022-11-06T10:20:53.457Z,10.41
2022-11-06T10:21:53.454Z,10.42
2022-11-06T10:22:53.427Z,10.47
2022-11-06T10:23:53.415Z,10.48
2022-11-06T10:24:53.414Z,10.56
2022-11-06T10:25:53.388Z,10.60
2022-11-06T10:26:53.408Z,10.67
2022-11-06T10:27:53.383Z,10.68
2022-11-06T10:28:53.360Z,10.73
2022-11-06T10:29:53.346Z,10.74
2022-11-06T10:30:53.343Z,10.76
2022-11-06T10:31:53.337Z,10.79
2022-11-06T10:32:53.332Z,10.85
2022-11-06T10:33:53.303Z,10.89
2022-11-06T10:34:53.297Z,10.92
2022-11-06T10:35:53.276Z,11.00
2022-11-06T10:36:53.276Z,11.21
2022-11-06T10:37:53.275Z,11.49
2022-11-06T10:38:53.262Z,11.76
2022-11-06T10:39:53.257Z,12.02
2022-11-06T10:40:53.223Z,12.14
2022-11-06T10:41:53.213Z,12.28
2022-11-06T10:42:53.202Z,12.39
2022-11-06T10:43:53.204Z,12.53
2022-11-06T10:44:53.187Z,12.59
2022-11-06T10:45:53.175Z,12.64
2022-11-06T10:46:53.175Z,12.68
2022-11-06T10:47:53.151Z,12.74
2022-11-06T10:48:53.162Z,12.77
2022-11-06T10:49:53.126Z,12.83
2022-11-06T10:50:53.141Z,12.85
2022-11-06T10:51:53.110Z,12.87
2022-11-06T10:52:53.098Z,12.82
2022-11-06T10:53:53.092Z,12.79
2022-11-06T10:54:53.073Z,12.78
2022-11-06T10:55:53.055Z,12.70
2022-11-06T10:56:53.058Z,12.60
2022-11-06T10:57:53.033Z,12.54
2022-11-06T10:58:53.040Z,12.59
2022-11-06T10:59:53.026Z,12.71
2022-11-06T11:00:53.181Z,12.77
2022-11-06T11:01:53.139Z,12.79
2022-11-06T11:02:52.985Z,12.71
2022-11-06T11:03:52.970Z,12.70
2022-11-06T11:04:57.741Z,12.72
2022-11-06T11:05:52.954Z,12.77
2022-11-06T11:06:52.945Z,12.79
2022-11-06T11:07:52.928Z,12.77
2022-11-06T11:08:52.921Z,12.74
2022-11-06T11:09:52.921Z,12.70
2022-11-06T11:11:04.512Z,12.62
2022-11-06T11:11:52.886Z,12.57
2022-11-06T11:12:52.884Z,12.52
2022-11-06T11:13:52.863Z,12.41
2022-11-06T11:14:52.870Z,12.38
2022-11-06T11:15:52.844Z,12.37
2022-11-06T11:16:52.838Z,12.35
2022-11-06T11:17:52.812Z,12.37
2022-11-06T11:18:52.810Z,12.31
2022-11-06T11:19:52.809Z,12.23
2022-11-06T11:20:52.787Z,12.17
2022-11-06T11:21:52.774Z,12.12
2022-11-06T11:22:52.813Z,12.05
2022-11-06T11:23:52.752Z,11.99
2022-11-06T11:24:52.848Z,11.94
2022-11-06T11:25:52.735Z,11.95
2022-11-06T11:26:52.723Z,11.90
2022-11-06T11:27:52.711Z,11.86
2022-11-06T11:28:52.700Z,11.82
2022-11-06T11:29:52.690Z,11.76
2022-11-06T11:30:52.690Z,11.70
2022-11-06T11:31:52.671Z,11.65
2022-11-06T11:32:52.654Z,11.64
2022-11-06T11:33:52.644Z,11.69
2022-11-06T11:34:56.403Z,11.73
2022-11-06T11:35:52.627Z,11.83
2022-11-06T11:36:52.616Z,11.95
2022-11-06T11:37:52.602Z,11.96
2022-11-06T11:38:52.589Z,12.01
2022-11-06T11:39:52.571Z,12.09
2022-11-06T11:40:52.578Z,12.17
2022-11-06T11:41:52.547Z,12.23
2022-11-06T11:42:52.550Z,12.14
2022-11-06T11:43:52.538Z,12.05
2022-11-06T11:44:52.527Z,12.12
2022-11-06T11:45:52.536Z,12.17
2022-11-06T11:46:52.498Z,12.24
2022-11-06T11:47:52.499Z,12.28
2022-11-06T11:48:52.480Z,12.29
2022-11-06T11:49:52.464Z,12.29
2022-11-06T11:50:52.467Z,12.27
2022-11-06T11:51:52.550Z,12.20
2022-11-06T11:52:52.440Z,12.27
2022-11-06T11:53:52.418Z,12.32
2022-11-06T11:54:52.427Z,12.39
2022-11-06T11:55:52.414Z,12.49
2022-11-06T11:57:07.897Z,12.54
2022-11-06T11:57:52.384Z,12.54
2022-11-06T11:58:52.378Z,12.54
2022-11-06T11:59:52.352Z,12.59
2022-11-06T12:00:52.351Z,12.57
2022-11-06T12:01:52.537Z,12.54
2022-11-06T12:02:52.407Z,12.56
2022-11-06T12:03:52.313Z,12.62
2022-11-06T12:04:52.333Z,12.65
2022-11-06T12:05:52.291Z,12.70
2022-11-06T12:06:52.294Z,12.74
2022-11-06T12:07:52.282Z,12.75
2022-11-06T12:08:52.261Z,12.78
2022-11-06T12:09:52.252Z,12.74
2022-11-06T12:10:52.239Z,12.75
2022-11-06T12:11:52.319Z,12.79
2022-11-06T12:12:52.230Z,12.79
2022-11-06T12:13:52.199Z,12.77
2022-11-06T12:14:52.190Z,12.78
2022-11-06T12:15:52.188Z,12.86
2022-11-06T12:16:52.175Z,12.90
2022-11-06T12:17:52.164Z,12.90
2022-11-06T12:18:57.602Z,13.00
2022-11-06T12:19:52.142Z,13.10
2022-11-06T12:20:52.142Z,13.15
2022-11-06T12:21:52.122Z,13.17
2022-11-06T12:22:52.121Z,13.23
2022-11-06T12:23:52.092Z,13.26
2022-11-06T12:24:52.099Z,13.26
2022-11-06T12:25:52.063Z,13.23
2022-11-06T12:26:52.061Z,13.19
2022-11-06T12:27:52.061Z,13.11
2022-11-06T12:28:52.047Z,13.00
2022-11-06T12:29:52.033Z,12.95
2022-11-06T12:30:52.025Z,12.89
2022-11-06T12:31:51.997Z,12.87
2022-11-06T12:32:52.008Z,12.89
2022-11-06T12:34:09.112Z,12.89
2022-11-06T12:34:51.981Z,12.90
2022-11-06T12:35:51.955Z,12.97
2022-11-06T12:36:51.950Z,13.03
2022-11-06T12:37:51.943Z,13.07
2022-11-06T12:38:51.948Z,13.08
2022-11-06T12:39:51.907Z,13.07
2022-11-06T12:40:51.901Z,13.10
2022-11-06T12:41:51.889Z,13.11
2022-11-06T12:42:51.892Z,13.14
2022-11-06T12:43:51.885Z,13.11
2022-11-06T12:44:51.874Z,13.10
2022-11-06T12:45:51.848Z,13.07
2022-11-06T12:46:51.841Z,12.97
2022-11-06T12:47:51.849Z,12.93
2022-11-06T12:48:51.901Z,12.92
2022-11-06T12:49:51.805Z,12.87
2022-11-06T12:50:51.790Z,12.86
2022-11-06T12:51:51.782Z,12.85
2022-11-06T12:52:51.804Z,12.78
2022-11-06T12:53:51.765Z,12.78
2022-11-06T12:54:51.784Z,12.75
2022-11-06T12:55:51.762Z,12.70
2022-11-06T12:56:51.744Z,12.67
2022-11-06T12:57:51.705Z,12.68
2022-11-06T12:58:51.758Z,12.64
2022-11-06T12:59:51.713Z,12.57
2022-11-06T13:00:51.728Z,12.57
2022-11-06T13:01:51.976Z,12.59
2022-11-06T13:02:51.758Z,12.60
2022-11-06T13:03:51.689Z,12.59
2022-11-06T13:04:51.653Z,12.52
2022-11-06T13:05:51.688Z,12.47
2022-11-06T13:06:51.615Z,12.42
2022-11-06T13:07:51.608Z,12.42
2022-11-06T13:08:51.684Z,12.38
2022-11-06T13:09:51.594Z,12.34
2022-11-06T13:10:51.585Z,12.31
2022-11-06T13:11:51.583Z,12.28
2022-11-06T13:12:51.549Z,12.29